VOMLVCBI

Guest
Details From VOML - Mangalore
To VCBI - Bandaranaike Intl Colombo
Flight Number -
Tags Generated
Created
Modified
Stats Distance 457 nm / 846 km
Max Altitude 0 ft / 0 m
Waypoints 3
Social Downloads 0
Likes 0
Share VATSIM

Download

Looking for another format? Having issues loading an existing format? Contact us
Advertisement - Login to hide

Notes

Generated

Route

VOML KAT VCBI

ID Type Via Altitude Latitude Longitude Leg Dist Tot Dist Heading (true) Name
O VOML APT - 0 ft / 0 m 12.96116˚ 74.88262˚ - 0 nm - -
KAT VOR - 0 ft / 0 m 7.16127˚ 79.86850˚ 456 nm 456 nm 139° / 140° BANDARANAIKE VOR-DME
O VCBI APT - 0 ft / 0 m 7.16874˚ 79.87491˚ 0 nm 456 nm 40° / 40° -

Altitude Profile

Advertisement - Login to hide

Weather


0- 5 10 15 20 25 30 35+ Temperature / ° C

Clouds and Precipitation
Forecast for 2017-12-15 06:00 UTC. Updated an hour ago

Ground ~20,000 ft ~40,000 ft Winds

VOML

Details ICAO VOML (IXE)
Name MANGALORE
Region India
Timezone Asia/Kolkata (UTC+5.5)
Stats Elevation 337 ft / 103 m (AMSL)
Location 12.957941° 74.888702°
Runways 2
Magnetic Variation 1.188° W

METAR

VOML 150200Z 09003KT 5000 BR NSC 25/22 Q1013 NOSIG

Decode

TAF

TAF VOML 141700Z 1418/1524 09005KT 6000 FEW015 BECMG 1422/1423 3000 BR SCT010 TEMPO 1500/1503 1500 BR SCT005 BECMG 1504/1505 6000 FEW015 BECMG 1506/1507 27010KT BECMG 1515/1516 09005KT BECMG 1522/1523 3000 BR SCT010

Decode

Departure Runways

ID Width Length Bearing (true) Bearing (mag) Surface Threshold Offset Overrun Length
06 151 ft / 46 m 8,054 ft / 2,455 m 58.13° 59.32° Concrete 394 ft / 120 m 0 ft / 0 m
09 151 ft / 46 m 5,321 ft / 1,622 m 89.10° 90.29° Asphalt 0 ft / 0 m 0 ft / 0 m
24 151 ft / 46 m 8,054 ft / 2,455 m 238.13° 239.32° Concrete 0 ft / 0 m 0 ft / 0 m
27 151 ft / 46 m 5,321 ft / 1,622 m 269.11° 270.30° Asphalt 0 ft / 0 m 0 ft / 0 m

VCBI

Details ICAO VCBI (CMB)
Name BANDARANAIKE INTL COLOMBO
Region Sri Lanka
Timezone Asia/Colombo (UTC+5.5)
Stats Elevation 30 ft / 9 m (AMSL)
Location 7.180754° 79.884118°
Runways 1
Magnetic Variation 2.068° W

METAR

VCBI 150110Z 08005KT 040V120 0600 FG VV/// 23/22 Q1012 BECMG 1000 FG

Decode

TAF

Not found

Destination Runways

ID Width Length Bearing (true) Bearing (mag) Surface Threshold Offset Overrun Length
04 148 ft / 45 m 11,018 ft / 3,358 m 37.25° 39.32° Asphalt 0 ft / 0 m 215 ft / 66 m
22 148 ft / 45 m 11,018 ft / 3,358 m 217.25° 219.32° Asphalt 0 ft / 0 m 300 ft / 91 m

Approach Navaids

Runway Type Ident Frequency Range Bearing (true) Bearing (mag) Slope Elevation
04 Localiser IKW 109.90 MHz 18 nm / 33 km 36.30° 38.37° - 27 ft / 8 m (AMSL)
04 Glidescope IKW 109.90 MHz 10 nm / 19 km 37.25° 39.31° 3.00° 24 ft / 7 m (AMSL)
04 DME IKW 109.90 MHz 18 nm / 33 km - - - 39 ft / 12 m (AMSL)
22 Localiser IKA 110.30 MHz 18 nm / 33 km 218.17° 220.23° - 25 ft / 8 m (AMSL)
22 Glidescope IKA 110.30 MHz 10 nm / 19 km 217.25° 219.31° 3.00° 24 ft / 7 m (AMSL)
22 DME IKA 110.30 MHz 18 nm / 33 km - - - 24 ft / 7 m (AMSL)

Popular Alternatives